createdAt,value
2017-07-19T00:01:08.965Z,1.10
2017-07-19T00:03:36.481Z,1.30
2017-07-19T00:06:04.052Z,1.67
2017-07-19T00:08:31.571Z,1.10
2017-07-19T00:10:59.266Z,1.90
2017-07-19T00:13:26.824Z,1.30
2017-07-19T00:15:54.443Z,1.20
2017-07-19T00:18:22.011Z,1.17
2017-07-19T00:20:49.540Z,1.33
2017-07-19T00:23:17.928Z,1.67
2017-07-19T00:25:45.440Z,1.00
2017-07-19T00:28:13.124Z,1.57
2017-07-19T00:30:40.683Z,1.10
2017-07-19T00:33:08.207Z,1.47
2017-07-19T00:35:35.754Z,1.30
2017-07-19T00:38:03.308Z,1.57
2017-07-19T00:40:30.827Z,1.33
2017-07-19T00:42:59.119Z,1.80
2017-07-19T00:45:26.711Z,1.20
2017-07-19T00:47:54.236Z,1.40
2017-07-19T00:50:21.749Z,2.20
2017-07-19T00:52:49.300Z,1.23
2017-07-19T00:55:16.896Z,1.40
2017-07-19T00:57:45.179Z,2.00
2017-07-19T01:00:12.752Z,1.40
2017-07-19T01:02:40.321Z,1.70
2017-07-19T01:05:07.831Z,1.40
2017-07-19T01:07:36.150Z,1.17
2017-07-19T01:10:03.724Z,1.00
2017-07-19T01:12:31.243Z,1.00
2017-07-19T01:14:59.521Z,1.20
2017-07-19T01:17:27.064Z,1.30
2017-07-19T01:19:54.584Z,1.00
2017-07-19T01:22:22.156Z,1.17
2017-07-19T01:24:49.678Z,1.50
2017-07-19T01:27:17.197Z,1.20
2017-07-19T01:29:45.527Z,1.27
2017-07-19T01:32:13.055Z,1.83
2017-07-19T01:34:40.610Z,1.20
2017-07-19T01:37:08.173Z,1.50
2017-07-19T01:39:35.708Z,1.00
2017-07-19T01:42:04.003Z,2.73
2017-07-19T01:44:31.572Z,1.20
2017-07-19T01:46:59.088Z,1.20
2017-07-19T01:49:27.388Z,1.30
2017-07-19T01:51:54.935Z,1.17
2017-07-19T01:54:22.467Z,3.20
2017-07-19T01:56:49.996Z,1.20
2017-07-19T01:59:17.550Z,1.30
2017-07-19T02:01:45.076Z,1.00
2017-07-19T02:04:12.607Z,1.30
2017-07-19T02:06:40.176Z,1.30
2017-07-19T02:09:08.452Z,2.60
2017-07-19T02:11:35.986Z,1.10
2017-07-19T02:14:03.764Z,1.20
2017-07-19T02:16:31.341Z,0.90
2017-07-19T02:18:58.863Z,1.27
2017-07-19T02:21:26.392Z,1.03
2017-07-19T02:23:53.949Z,1.07
2017-07-19T02:26:21.472Z,0.90
2017-07-19T02:28:48.996Z,1.17
2017-07-19T02:31:16.553Z,1.10
2017-07-19T02:33:44.067Z,1.13
2017-07-19T02:36:11.577Z,1.07
2017-07-19T02:38:39.894Z,1.00
2017-07-19T02:41:07.423Z,1.13
2017-07-19T02:43:34.996Z,1.07
2017-07-19T02:46:02.533Z,1.63
2017-07-19T02:48:30.807Z,1.00
2017-07-19T02:50:58.383Z,0.90
2017-07-19T02:53:25.903Z,1.13
2017-07-19T02:55:53.441Z,1.80
2017-07-19T02:58:21.033Z,0.80
2017-07-19T03:00:48.586Z,1.20
2017-07-19T03:03:16.888Z,0.73
2017-07-19T03:05:44.440Z,1.20
2017-07-19T03:08:12.013Z,1.00
2017-07-19T03:10:39.540Z,1.87
2017-07-19T03:13:08.676Z,1.00
2017-07-19T03:15:36.212Z,1.17
2017-07-19T03:18:03.797Z,1.13
2017-07-19T03:20:31.475Z,0.80
2017-07-19T03:22:58.993Z,2.40
2017-07-19T03:25:26.560Z,1.23
2017-07-19T03:27:54.081Z,1.60
2017-07-19T03:30:22.395Z,1.20
2017-07-19T03:32:49.964Z,1.77
2017-07-19T03:35:17.484Z,1.50
2017-07-19T03:37:45.805Z,1.50
2017-07-19T03:40:13.383Z,1.03
2017-07-19T03:42:40.915Z,1.10
2017-07-19T03:45:08.487Z,1.30
2017-07-19T03:47:36.008Z,1.43
2017-07-19T03:50:03.576Z,1.57
2017-07-19T03:52:31.116Z,1.47
2017-07-19T03:54:58.645Z,1.50
2017-07-19T03:57:26.251Z,2.63
2017-07-19T03:59:53.809Z,1.23
2017-07-19T04:02:21.380Z,1.47
2017-07-19T04:04:48.915Z,2.30
2017-07-19T04:07:16.436Z,1.40
2017-07-19T04:09:44.779Z,1.83
2017-07-19T04:12:12.299Z,2.47
2017-07-19T04:14:39.827Z,1.43
2017-07-19T04:17:07.386Z,1.40
2017-07-19T04:19:34.912Z,2.50
2017-07-19T04:22:02.472Z,1.60
2017-07-19T04:24:29.999Z,1.93
2017-07-19T04:26:57.529Z,1.63
2017-07-19T04:29:25.103Z,1.30
2017-07-19T04:31:52.648Z,1.30
2017-07-19T04:34:20.191Z,1.40
2017-07-19T04:36:48.562Z,1.43
2017-07-19T04:39:16.203Z,1.63
2017-07-19T04:41:43.723Z,1.50
2017-07-19T04:44:11.289Z,1.43
2017-07-19T04:46:38.810Z,1.30
2017-07-19T04:49:06.386Z,1.40
2017-07-19T04:51:33.915Z,1.70
2017-07-19T04:54:02.307Z,1.53
2017-07-19T04:56:30.644Z,1.80
2017-07-19T04:58:58.218Z,1.80
2017-07-19T05:01:25.759Z,1.53
2017-07-19T05:03:53.429Z,3.37
2017-07-19T05:06:20.996Z,1.57
2017-07-19T05:08:48.585Z,2.37
2017-07-19T05:11:17.249Z,1.40
2017-07-19T05:13:45.555Z,1.47
2017-07-19T05:16:13.127Z,1.40
2017-07-19T05:18:40.671Z,1.43
2017-07-19T05:21:08.255Z,2.90
2017-07-19T05:23:35.776Z,1.50
2017-07-19T05:26:03.313Z,1.33
2017-07-19T05:28:31.642Z,1.53
2017-07-19T05:30:59.185Z,2.10
2017-07-19T05:33:26.732Z,1.50
2017-07-19T05:35:54.296Z,1.60
2017-07-19T05:38:21.861Z,1.53
2017-07-19T05:40:49.393Z,1.80
2017-07-19T05:43:17.782Z,1.73
2017-07-19T05:45:45.413Z,1.80
2017-07-19T05:48:13.741Z,1.90
2017-07-19T05:50:42.476Z,1.70
2017-07-19T05:53:10.832Z,1.40
2017-07-19T05:55:38.351Z,2.53
2017-07-19T05:58:05.888Z,2.60
2017-07-19T06:00:33.485Z,2.90
2017-07-19T06:03:01.076Z,1.80
2017-07-19T06:05:29.375Z,2.03
2017-07-19T06:07:56.943Z,1.97
2017-07-19T06:10:24.508Z,1.30
2017-07-19T06:12:52.067Z,1.70
2017-07-19T06:15:19.607Z,2.03
2017-07-19T06:17:47.169Z,1.87
2017-07-19T06:20:15.534Z,1.70
2017-07-19T06:22:43.165Z,5.00
2017-07-19T06:25:10.716Z,1.73
2017-07-19T06:27:38.279Z,1.90
2017-07-19T06:30:06.632Z,2.00
2017-07-19T06:32:34.155Z,2.27
2017-07-19T06:35:01.702Z,2.00
2017-07-19T06:37:30.037Z,1.50
2017-07-19T06:39:57.557Z,1.60
2017-07-19T06:42:25.116Z,1.50
2017-07-19T06:44:52.711Z,1.80
2017-07-19T06:47:20.240Z,1.67
2017-07-19T06:49:47.764Z,2.20
2017-07-19T06:52:16.085Z,1.73
2017-07-19T06:54:43.660Z,1.60
2017-07-19T06:57:11.239Z,2.60
2017-07-19T06:59:38.763Z,1.70
2017-07-19T07:02:06.317Z,1.80
2017-07-19T07:04:33.876Z,1.77
2017-07-19T07:07:01.415Z,1.40
2017-07-19T07:09:28.993Z,1.70
2017-07-19T07:11:56.528Z,1.50
2017-07-19T07:14:24.090Z,1.30
2017-07-19T07:16:51.653Z,1.77
2017-07-19T07:19:19.174Z,1.87
2017-07-19T07:21:47.516Z,1.60
2017-07-19T07:24:15.042Z,1.67
2017-07-19T07:26:42.647Z,1.63
2017-07-19T07:29:10.179Z,1.63
2017-07-19T07:31:37.701Z,2.80
2017-07-19T07:34:05.276Z,2.53
2017-07-19T07:36:32.807Z,1.77
2017-07-19T07:39:00.383Z,1.60
2017-07-19T07:41:27.975Z,1.70
2017-07-19T07:43:55.523Z,1.50
2017-07-19T07:46:23.070Z,2.13
2017-07-19T07:48:50.634Z,2.10
2017-07-19T07:51:18.160Z,1.70
2017-07-19T07:53:46.453Z,2.90
2017-07-19T07:56:14.012Z,1.63
2017-07-19T07:58:41.596Z,1.67
2017-07-19T08:01:09.121Z,1.83
2017-07-19T08:03:36.645Z,1.80
2017-07-19T08:06:04.220Z,1.73
2017-07-19T08:08:31.762Z,1.80
2017-07-19T08:11:00.060Z,2.17
2017-07-19T08:13:27.627Z,1.60
2017-07-19T08:15:56.062Z,2.00
2017-07-19T08:18:23.605Z,1.63
2017-07-19T08:20:51.426Z,1.73
2017-07-19T08:23:18.975Z,2.30
2017-07-19T08:25:46.539Z,1.90
2017-07-19T08:28:15.561Z,2.47
2017-07-19T08:30:43.098Z,2.33
2017-07-19T08:33:10.658Z,4.50
2017-07-19T08:35:39.024Z,1.80
2017-07-19T08:38:06.544Z,1.80
2017-07-19T08:40:34.119Z,1.80
2017-07-19T08:43:01.673Z,1.90
2017-07-19T08:45:30.074Z,2.23
2017-07-19T08:47:57.687Z,2.03
2017-07-19T08:50:26.086Z,1.97
2017-07-19T08:52:54.422Z,2.10
2017-07-19T08:55:21.980Z,2.47
2017-07-19T08:57:49.592Z,1.93
2017-07-19T09:00:17.129Z,2.33
2017-07-19T09:02:44.708Z,1.87
2017-07-19T09:05:13.004Z,1.90
2017-07-19T09:07:40.532Z,1.70
2017-07-19T09:10:08.091Z,1.83
2017-07-19T09:12:35.674Z,2.30
2017-07-19T09:15:03.220Z,2.00
2017-07-19T09:17:30.803Z,2.30
2017-07-19T09:19:58.336Z,2.13
2017-07-19T09:22:27.590Z,2.20
2017-07-19T09:24:55.156Z,2.43
2017-07-19T09:27:22.688Z,4.23
2017-07-19T09:29:50.222Z,2.90
2017-07-19T09:32:17.807Z,2.80
2017-07-19T09:34:45.788Z,2.40
2017-07-19T09:37:13.320Z,3.10
2017-07-19T09:39:40.896Z,2.63
2017-07-19T09:42:08.420Z,2.03
2017-07-19T09:44:35.955Z,2.10
2017-07-19T09:47:03.537Z,2.27
2017-07-19T09:49:31.940Z,2.37
2017-07-19T09:51:59.488Z,2.37
2017-07-19T09:54:27.027Z,2.10
2017-07-19T09:56:54.605Z,2.07
2017-07-19T09:59:22.167Z,2.40
2017-07-19T10:01:49.721Z,2.07
2017-07-19T10:04:17.296Z,2.40
2017-07-19T10:06:44.838Z,2.50
2017-07-19T10:09:13.355Z,2.30
2017-07-19T10:11:41.775Z,2.43
2017-07-19T10:14:09.355Z,3.10
2017-07-19T10:16:36.945Z,2.07
2017-07-19T10:19:04.500Z,2.20
2017-07-19T10:21:32.080Z,2.70
2017-07-19T10:23:59.608Z,2.40
2017-07-19T10:26:27.157Z,2.57
2017-07-19T10:28:54.727Z,2.17
2017-07-19T10:31:22.252Z,2.57
2017-07-19T10:33:49.798Z,2.50
2017-07-19T10:36:17.369Z,2.53
2017-07-19T10:38:44.957Z,3.10
2017-07-19T10:41:12.514Z,2.37
2017-07-19T10:43:40.092Z,2.50
2017-07-19T10:46:07.616Z,2.30
2017-07-19T10:48:35.237Z,2.87
2017-07-19T10:51:02.847Z,2.57
2017-07-19T10:53:30.397Z,3.07
2017-07-19T10:55:57.923Z,2.70
2017-07-19T10:58:25.501Z,3.07
2017-07-19T11:00:53.648Z,3.03
2017-07-19T11:03:21.179Z,3.10
2017-07-19T11:05:49.524Z,3.40
2017-07-19T11:08:17.110Z,2.77
2017-07-19T11:10:44.654Z,2.53
2017-07-19T11:13:13.033Z,2.90
2017-07-19T11:15:40.557Z,2.77
2017-07-19T11:18:08.149Z,2.87
2017-07-19T11:20:35.989Z,3.20
2017-07-19T11:23:03.505Z,3.10
2017-07-19T11:25:31.043Z,3.00
2017-07-19T11:27:58.632Z,3.10
2017-07-19T11:30:26.188Z,3.10
2017-07-19T11:32:53.744Z,2.53
2017-07-19T11:35:21.319Z,2.80
2017-07-19T11:37:48.872Z,3.20
2017-07-19T11:40:16.440Z,4.73
2017-07-19T11:42:44.051Z,2.77
2017-07-19T11:45:11.640Z,3.03
2017-07-19T11:47:39.172Z,4.30
2017-07-19T11:50:06.694Z,3.50
2017-07-19T11:52:34.617Z,3.90
2017-07-19T11:55:02.165Z,3.57
2017-07-19T11:57:29.684Z,3.43
2017-07-19T11:59:58.064Z,3.17
2017-07-19T12:02:25.604Z,3.10
2017-07-19T12:04:53.132Z,3.77
2017-07-19T12:07:20.784Z,3.90
2017-07-19T12:09:48.313Z,3.90
2017-07-19T12:12:16.862Z,4.10
2017-07-19T12:14:44.438Z,4.13
2017-07-19T12:17:11.980Z,4.07
2017-07-19T12:19:39.545Z,3.83
2017-07-19T12:22:07.125Z,4.70
2017-07-19T12:24:34.636Z,4.30
2017-07-19T12:27:02.191Z,4.10
2017-07-19T12:29:29.757Z,4.00
2017-07-19T12:31:57.288Z,4.03
2017-07-19T12:34:25.244Z,4.80
2017-07-19T12:36:52.856Z,4.60
2017-07-19T12:39:20.376Z,6.37
2017-07-19T12:41:48.072Z,4.40
2017-07-19T12:44:15.701Z,4.70
2017-07-19T12:46:43.269Z,4.03
2017-07-19T12:49:10.815Z,4.10
2017-07-19T12:51:38.337Z,4.50
2017-07-19T12:54:06.660Z,4.00
2017-07-19T12:56:35.070Z,4.40
2017-07-19T12:59:02.647Z,4.77
2017-07-19T13:01:30.192Z,5.17
2017-07-19T13:03:58.491Z,4.57
2017-07-19T13:06:26.053Z,4.57
2017-07-19T13:08:53.632Z,4.03
2017-07-19T13:11:21.202Z,5.23
2017-07-19T13:13:48.763Z,4.53
2017-07-19T13:16:16.287Z,5.20
2017-07-19T13:18:43.910Z,4.03
2017-07-19T13:21:11.541Z,6.10
2017-07-19T13:23:39.109Z,4.87
2017-07-19T13:26:06.688Z,4.73
2017-07-19T13:28:34.262Z,4.20
2017-07-19T13:31:02.071Z,5.10
2017-07-19T13:33:29.701Z,4.50
2017-07-19T13:35:57.260Z,4.63
2017-07-19T13:38:24.876Z,5.30
2017-07-19T13:40:52.739Z,4.60
2017-07-19T13:43:21.079Z,5.23
2017-07-19T13:45:49.726Z,4.80
2017-07-19T13:48:17.440Z,5.10
2017-07-19T13:50:45.009Z,4.63
2017-07-19T13:53:12.593Z,4.87
2017-07-19T13:55:40.203Z,5.10
2017-07-19T13:58:07.769Z,5.57
2017-07-19T14:00:35.541Z,5.40
2017-07-19T14:03:03.095Z,5.13
2017-07-19T14:05:30.659Z,5.43
2017-07-19T14:07:58.289Z,4.53
2017-07-19T14:10:25.865Z,5.10
2017-07-19T14:12:53.474Z,5.57
2017-07-19T14:15:21.870Z,5.23
2017-07-19T14:17:49.488Z,4.87
2017-07-19T14:20:17.618Z,4.83
2017-07-19T14:22:45.216Z,5.50
2017-07-19T14:25:12.758Z,5.40
2017-07-19T14:27:40.321Z,4.70
2017-07-19T14:30:07.960Z,4.70
2017-07-19T14:32:35.585Z,4.43
2017-07-19T14:35:03.956Z,5.07
2017-07-19T14:37:31.580Z,5.40
2017-07-19T14:39:59.176Z,5.20
2017-07-19T14:42:26.768Z,5.00
2017-07-19T14:44:54.343Z,4.83
2017-07-19T14:47:21.924Z,5.53
2017-07-19T14:49:49.493Z,4.33
2017-07-19T14:52:17.078Z,4.87
2017-07-19T14:54:44.619Z,4.63
2017-07-19T14:57:12.968Z,5.40
2017-07-19T14:59:40.582Z,5.30
2017-07-19T15:02:08.152Z,4.93
2017-07-19T15:04:35.780Z,5.40
2017-07-19T15:07:04.162Z,5.20
2017-07-19T15:09:32.477Z,5.10
2017-07-19T15:12:00.069Z,5.13
2017-07-19T15:14:27.637Z,5.03
2017-07-19T15:16:55.192Z,5.10
2017-07-19T15:19:22.710Z,4.63
2017-07-19T15:21:50.284Z,5.50
2017-07-19T15:24:17.823Z,5.20
2017-07-19T15:26:45.357Z,5.00
2017-07-19T15:29:12.968Z,4.97
2017-07-19T15:31:40.562Z,6.27
2017-07-19T15:34:08.129Z,5.80
2017-07-19T15:36:35.740Z,4.60
2017-07-19T15:39:03.308Z,4.67
2017-07-19T15:41:30.881Z,4.87
2017-07-19T15:43:58.417Z,4.93
2017-07-19T15:46:25.954Z,5.47
2017-07-19T15:48:53.536Z,4.77
2017-07-19T15:51:21.108Z,5.20
2017-07-19T15:53:48.792Z,4.97
2017-07-19T15:56:16.358Z,5.13
2017-07-19T15:58:43.907Z,4.77
2017-07-19T16:01:11.482Z,4.63
2017-07-19T16:03:39.029Z,4.23
2017-07-19T16:06:06.605Z,5.90
2017-07-19T16:08:34.170Z,4.67
2017-07-19T16:11:01.692Z,6.10
2017-07-19T16:13:29.256Z,4.47
2017-07-19T16:15:56.841Z,6.57
2017-07-19T16:18:24.412Z,5.50
2017-07-19T16:20:51.966Z,6.03
2017-07-19T16:23:19.506Z,4.17
2017-07-19T16:25:47.092Z,5.00
2017-07-19T16:28:14.631Z,5.30
2017-07-19T16:30:42.237Z,4.70
2017-07-19T16:33:09.825Z,5.10
2017-07-19T16:35:37.370Z,4.93
2017-07-19T16:38:04.925Z,4.90
2017-07-19T16:40:33.276Z,4.90
2017-07-19T16:43:00.800Z,5.40
2017-07-19T16:45:28.384Z,5.50
2017-07-19T16:47:55.966Z,6.83
2017-07-19T16:50:23.576Z,5.50
2017-07-19T16:52:51.129Z,5.87
2017-07-19T16:55:18.684Z,5.07
2017-07-19T16:57:46.216Z,5.17
2017-07-19T17:00:14.579Z,5.20
2017-07-19T17:02:42.112Z,5.87
2017-07-19T17:05:09.637Z,5.23
2017-07-19T17:07:37.197Z,5.20
2017-07-19T17:10:04.713Z,5.30
2017-07-19T17:12:33.619Z,4.73
2017-07-19T17:15:02.157Z,6.20
2017-07-19T17:17:29.680Z,5.40
2017-07-19T17:19:57.235Z,6.70
2017-07-19T17:22:24.764Z,5.77
2017-07-19T17:24:52.293Z,6.37
2017-07-19T17:27:19.854Z,5.07
2017-07-19T17:29:47.373Z,6.03
2017-07-19T17:32:14.903Z,6.60
2017-07-19T17:34:43.256Z,5.27
2017-07-19T17:37:10.777Z,5.87
2017-07-19T17:39:38.348Z,6.20
2017-07-19T17:42:05.940Z,6.00
2017-07-19T17:44:34.224Z,6.30
2017-07-19T17:47:02.568Z,7.30
2017-07-19T17:49:30.149Z,6.20
2017-07-19T17:51:58.424Z,6.10
2017-07-19T17:54:25.947Z,5.93
2017-07-19T17:56:53.607Z,5.90
2017-07-19T17:59:21.131Z,5.17
2017-07-19T18:01:48.651Z,6.27
2017-07-19T18:04:17.312Z,7.10
2017-07-19T18:06:44.856Z,6.47
2017-07-19T18:09:12.379Z,6.00
2017-07-19T18:11:39.982Z,6.03
2017-07-19T18:14:07.503Z,6.00
2017-07-19T18:16:35.031Z,5.80
2017-07-19T18:19:03.422Z,6.10
2017-07-19T18:21:30.958Z,6.40
2017-07-19T18:23:59.296Z,5.83
2017-07-19T18:26:26.860Z,6.40
2017-07-19T18:28:54.376Z,6.10
2017-07-19T18:31:21.890Z,6.63
2017-07-19T18:33:49.490Z,7.00
2017-07-19T18:36:17.035Z,8.57
2017-07-19T18:38:44.721Z,6.33
2017-07-19T18:41:12.293Z,6.80
2017-07-19T18:43:39.822Z,6.60
2017-07-19T18:46:07.338Z,6.97
2017-07-19T18:48:34.913Z,7.23
2017-07-19T18:51:03.199Z,6.80
2017-07-19T18:53:31.493Z,6.90
2017-07-19T18:55:59.064Z,6.50
2017-07-19T18:58:26.578Z,6.43
2017-07-19T19:00:54.091Z,7.70
2017-07-19T19:03:21.664Z,7.73
2017-07-19T19:05:49.218Z,7.73
2017-07-19T19:08:16.764Z,7.87
2017-07-19T19:10:44.353Z,6.07
2017-07-19T19:13:12.231Z,7.33
2017-07-19T19:15:39.752Z,7.40
2017-07-19T19:18:07.321Z,7.13
2017-07-19T19:20:34.848Z,7.10
2017-07-19T19:23:02.415Z,6.80
2017-07-19T19:25:29.977Z,7.10
2017-07-19T19:27:57.495Z,6.93
2017-07-19T19:30:25.012Z,8.03
2017-07-19T19:32:52.572Z,8.63
2017-07-19T19:35:20.103Z,7.27
2017-07-19T19:37:47.680Z,7.67
2017-07-19T19:40:15.240Z,6.30
2017-07-19T19:42:42.763Z,6.43
2017-07-19T19:45:10.302Z,7.13
2017-07-19T19:47:37.896Z,6.93
2017-07-19T19:50:05.437Z,7.30
2017-07-19T19:52:33.007Z,6.90
2017-07-19T19:55:00.544Z,6.87
2017-07-19T19:57:28.065Z,6.77
2017-07-19T19:59:55.617Z,6.60
2017-07-19T20:02:24.347Z,6.40
2017-07-19T20:04:51.971Z,7.03
2017-07-19T20:07:19.492Z,6.60
2017-07-19T20:09:47.060Z,6.97
2017-07-19T20:12:14.628Z,6.90
2017-07-19T20:14:42.140Z,7.17
2017-07-19T20:17:09.677Z,7.07
2017-07-19T20:19:37.360Z,7.77
2017-07-19T20:22:04.880Z,7.50
2017-07-19T20:24:32.400Z,7.77
2017-07-19T20:26:59.964Z,7.90
2017-07-19T20:29:27.482Z,7.47
2017-07-19T20:31:55.044Z,7.40
2017-07-19T20:34:22.657Z,8.30
2017-07-19T20:36:50.184Z,7.20
2017-07-19T20:39:17.711Z,7.10
2017-07-19T20:41:45.274Z,7.00
2017-07-19T20:44:12.797Z,7.63
2017-07-19T20:46:41.104Z,7.83
2017-07-19T20:49:08.672Z,7.67
2017-07-19T20:51:36.201Z,7.20
2017-07-19T20:54:03.778Z,7.40
2017-07-19T20:56:31.379Z,7.73
2017-07-19T20:58:58.895Z,7.30
2017-07-19T21:01:26.424Z,7.30
2017-07-19T21:03:53.975Z,9.30
2017-07-19T21:06:21.488Z,7.23
2017-07-19T21:08:49.115Z,8.33
2017-07-19T21:11:16.846Z,6.00
2017-07-19T21:13:44.412Z,7.37
2017-07-19T21:16:11.982Z,7.40
2017-07-19T21:18:40.357Z,6.23
2017-07-19T21:21:08.686Z,6.37
2017-07-19T21:23:36.267Z,6.97
2017-07-19T21:26:03.878Z,6.30
2017-07-19T21:28:31.455Z,6.70
2017-07-19T21:30:59.048Z,8.10
2017-07-19T21:33:26.677Z,5.90
2017-07-19T21:35:54.240Z,7.50
2017-07-19T21:38:21.831Z,5.30
2017-07-19T21:40:49.453Z,6.97
2017-07-19T21:43:17.063Z,7.30
2017-07-19T21:45:44.632Z,5.67
2017-07-19T21:48:12.274Z,6.50
2017-07-19T21:50:39.852Z,5.37
2017-07-19T21:53:07.445Z,5.37
2017-07-19T21:55:35.063Z,5.27
2017-07-19T21:58:02.635Z,6.30
2017-07-19T22:00:30.218Z,7.30
2017-07-19T22:02:57.818Z,5.43
2017-07-19T22:05:26.172Z,5.37
2017-07-19T22:07:53.785Z,6.17
2017-07-19T22:10:21.367Z,5.10
2017-07-19T22:12:48.961Z,5.10
2017-07-19T22:15:16.600Z,5.17
2017-07-19T22:17:44.157Z,4.63
2017-07-19T22:20:12.098Z,4.80
2017-07-19T22:22:39.700Z,5.37
2017-07-19T22:25:07.261Z,4.37
2017-07-19T22:27:34.832Z,4.63
2017-07-19T22:30:02.414Z,4.73
2017-07-19T22:32:29.967Z,4.93
2017-07-19T22:34:58.330Z,4.40
2017-07-19T22:37:26.008Z,4.30
2017-07-19T22:39:54.408Z,4.23
2017-07-19T22:42:22.009Z,4.37
2017-07-19T22:44:49.579Z,3.90
2017-07-19T22:47:17.149Z,3.40
2017-07-19T22:49:44.743Z,3.80
2017-07-19T22:52:12.329Z,5.10
2017-07-19T22:54:39.922Z,5.27
2017-07-19T22:57:08.245Z,3.90
2017-07-19T22:59:35.806Z,4.20
2017-07-19T23:02:03.403Z,3.47
2017-07-19T23:04:30.958Z,3.77
2017-07-19T23:06:58.609Z,2.90
2017-07-19T23:09:26.172Z,4.70
2017-07-19T23:11:53.741Z,4.47
2017-07-19T23:14:23.080Z,4.80
2017-07-19T23:16:50.646Z,4.33
2017-07-19T23:19:18.268Z,4.70
2017-07-19T23:21:45.855Z,3.20
2017-07-19T23:24:13.438Z,2.97
2017-07-19T23:26:41.051Z,5.13
2017-07-19T23:29:08.646Z,4.80
2017-07-19T23:31:36.214Z,5.17
2017-07-19T23:34:03.843Z,2.90
2017-07-19T23:36:31.433Z,4.27
2017-07-19T23:38:59.010Z,3.90
2017-07-19T23:41:26.622Z,5.00
2017-07-19T23:43:54.182Z,3.70
2017-07-19T23:46:21.741Z,2.80
2017-07-19T23:48:49.336Z,4.07
2017-07-19T23:51:17.664Z,3.87
2017-07-19T23:53:45.290Z,4.07
2017-07-19T23:56:12.845Z,2.20
2017-07-19T23:58:40.405Z,4.70
